createdAt,value
2023-04-22T00:00:52.955Z,4.70
2023-04-22T00:01:53.298Z,4.00
2023-04-22T00:02:53.754Z,4.50
2023-04-22T00:03:53.979Z,4.40
2023-04-22T00:04:54.349Z,5.00
2023-04-22T00:05:54.471Z,5.10
2023-04-22T00:06:54.712Z,5.30
2023-04-22T00:07:55.012Z,5.50
2023-04-22T00:08:55.337Z,5.00
2023-04-22T00:09:55.673Z,4.90
2023-04-22T00:10:55.965Z,4.70
2023-04-22T00:11:56.270Z,4.70
2023-04-22T00:12:56.582Z,4.70
2023-04-22T00:13:56.910Z,5.00
2023-04-22T00:14:57.190Z,4.70
2023-04-22T00:15:57.537Z,4.70
2023-04-22T00:16:57.815Z,4.40
2023-04-22T00:17:58.154Z,4.70
2023-04-22T00:18:58.467Z,4.50
2023-04-22T00:19:58.755Z,5.30
2023-04-22T00:20:59.071Z,4.70
2023-04-22T00:21:59.391Z,5.10
2023-04-22T00:22:59.665Z,4.90
2023-04-22T00:23:59.973Z,4.40
2023-04-22T00:25:00.282Z,4.60
2023-04-22T00:26:00.619Z,4.70
2023-04-22T00:27:00.903Z,4.60
2023-04-22T00:28:01.194Z,4.10
2023-04-22T00:29:01.522Z,3.60
2023-04-22T00:30:01.841Z,3.40
2023-04-22T00:31:02.199Z,3.30
2023-04-22T00:32:02.420Z,3.90
2023-04-22T00:33:02.803Z,3.70
2023-04-22T00:34:02.953Z,3.60
2023-04-22T00:35:03.210Z,4.20
2023-04-22T00:36:03.468Z,3.60
2023-04-22T00:37:03.679Z,3.80
2023-04-22T00:38:03.899Z,3.80
2023-04-22T00:39:04.192Z,4.00
2023-04-22T00:40:04.451Z,3.70
2023-04-22T00:41:04.776Z,4.10
2023-04-22T00:42:05.006Z,3.70
2023-04-22T00:43:05.247Z,4.10
2023-04-22T00:44:05.545Z,3.80
2023-04-22T00:45:05.750Z,3.40
2023-04-22T00:46:06.027Z,4.10
2023-04-22T00:47:06.326Z,3.70
2023-04-22T00:48:06.625Z,3.80
2023-04-22T00:49:06.901Z,3.50
2023-04-22T00:50:07.148Z,3.60
2023-04-22T00:51:07.410Z,3.80
2023-04-22T00:52:07.678Z,4.00
2023-04-22T00:53:07.931Z,3.90
2023-04-22T00:54:08.169Z,3.90
2023-04-22T00:55:08.442Z,3.80
2023-04-22T00:56:08.643Z,3.70
2023-04-22T00:57:08.937Z,3.60
2023-04-22T00:58:09.157Z,3.80
2023-04-22T00:59:09.414Z,3.80
2023-04-22T01:00:09.676Z,3.90
2023-04-22T01:01:09.993Z,3.70
2023-04-22T01:02:10.339Z,3.80
2023-04-22T01:03:10.682Z,3.80
2023-04-22T01:04:11.040Z,3.90
2023-04-22T01:05:11.075Z,3.80
2023-04-22T01:06:11.415Z,3.70
2023-04-22T01:07:11.655Z,3.80
2023-04-22T01:08:11.993Z,3.60
2023-04-22T01:09:12.308Z,4.30
2023-04-22T01:10:12.668Z,3.90
2023-04-22T01:11:12.898Z,4.10
2023-04-22T01:12:13.217Z,3.70
2023-04-22T01:13:13.542Z,3.80
2023-04-22T01:14:13.899Z,4.10
2023-04-22T01:15:14.108Z,4.00
2023-04-22T01:16:14.541Z,3.50
2023-04-22T01:17:14.713Z,3.80
2023-04-22T01:18:15.025Z,3.60
2023-04-22T01:19:15.362Z,3.40
2023-04-22T01:20:15.671Z,3.90
2023-04-22T01:21:15.985Z,3.40
2023-04-22T01:22:16.337Z,3.80
2023-04-22T01:23:16.630Z,3.50
2023-04-22T01:24:16.963Z,3.80
2023-04-22T01:25:17.285Z,3.80
2023-04-22T01:26:17.599Z,3.60
2023-04-22T01:27:17.909Z,3.50
2023-04-22T01:28:18.236Z,3.50
2023-04-22T01:29:18.567Z,3.70
2023-04-22T01:30:18.898Z,3.50
2023-04-22T01:31:19.177Z,3.60
2023-04-22T01:32:19.733Z,3.70
2023-04-22T01:33:19.877Z,3.70
2023-04-22T01:34:20.199Z,3.80
2023-04-22T01:35:20.516Z,3.80
2023-04-22T01:36:20.849Z,3.80
2023-04-22T01:37:21.147Z,4.10
2023-04-22T01:38:21.456Z,4.00
2023-04-22T01:39:21.784Z,4.00
2023-04-22T01:40:22.095Z,3.50
2023-04-22T01:41:22.414Z,3.90
2023-04-22T01:42:22.734Z,3.40
2023-04-22T01:43:23.037Z,3.60
2023-04-22T01:44:23.365Z,3.80
2023-04-22T01:45:23.688Z,3.30
2023-04-22T01:46:24.107Z,3.70
2023-04-22T01:47:24.290Z,3.60
2023-04-22T01:48:24.586Z,4.00
2023-04-22T01:49:24.921Z,3.90
2023-04-22T01:50:25.239Z,3.90
2023-04-22T01:51:25.542Z,3.50
2023-04-22T01:52:25.891Z,3.60
2023-04-22T01:53:26.186Z,3.70
2023-04-22T01:54:26.509Z,3.80
2023-04-22T01:55:26.815Z,3.90
2023-04-22T01:56:27.139Z,3.80
2023-04-22T01:57:27.435Z,4.10
2023-04-22T01:58:27.748Z,4.50
2023-04-22T01:59:28.046Z,3.90
2023-04-22T02:00:28.349Z,4.40
2023-04-22T02:01:28.689Z,4.20
2023-04-22T02:02:29.012Z,4.30
2023-04-22T02:03:29.335Z,4.50
2023-04-22T02:04:29.590Z,4.40
2023-04-22T02:05:29.882Z,4.10
2023-04-22T02:06:30.202Z,4.00
2023-04-22T02:07:30.494Z,4.20
2023-04-22T02:08:30.825Z,4.30
2023-04-22T02:09:31.127Z,4.10
2023-04-22T02:10:31.455Z,4.30
2023-04-22T02:11:31.759Z,4.30
2023-04-22T02:12:39.697Z,4.00
2023-04-22T02:13:32.607Z,4.00
2023-04-22T02:14:32.717Z,3.80
2023-04-22T02:15:33.087Z,4.20
2023-04-22T02:16:33.493Z,3.90
2023-04-22T02:17:33.706Z,4.40
2023-04-22T02:18:34.054Z,4.40
2023-04-22T02:19:34.437Z,4.20
2023-04-22T02:20:34.809Z,3.70
2023-04-22T02:21:34.897Z,4.10
2023-04-22T02:22:35.235Z,4.20
2023-04-22T02:23:35.507Z,4.40
2023-04-22T02:24:35.837Z,4.50
2023-04-22T02:25:36.109Z,4.00
2023-04-22T02:26:36.426Z,4.30
2023-04-22T02:27:36.724Z,4.10
2023-04-22T02:28:37.017Z,4.40
2023-04-22T02:29:37.684Z,3.90
2023-04-22T02:30:37.641Z,4.20
2023-04-22T02:31:37.969Z,3.60
2023-04-22T02:32:38.200Z,4.10
2023-04-22T02:33:38.421Z,4.20
2023-04-22T02:34:38.711Z,4.10
2023-04-22T02:35:39.030Z,4.30
2023-04-22T02:36:39.310Z,4.60
2023-04-22T02:37:39.605Z,4.70
2023-04-22T02:38:39.912Z,5.30
2023-04-22T02:39:40.581Z,6.00
2023-04-22T02:40:40.510Z,6.30
2023-04-22T02:41:40.812Z,5.80
2023-04-22T02:42:41.090Z,5.70
2023-04-22T02:43:41.440Z,6.40
2023-04-22T02:44:41.725Z,6.30
2023-04-22T02:45:42.069Z,6.40
2023-04-22T02:46:42.424Z,6.50
2023-04-22T02:47:42.722Z,6.70
2023-04-22T02:48:43.026Z,6.90
2023-04-22T02:49:43.375Z,6.80
2023-04-22T02:50:43.651Z,6.70
2023-04-22T02:51:43.946Z,6.50
2023-04-22T02:52:44.266Z,6.80
2023-04-22T02:53:44.628Z,7.10
2023-04-22T02:54:44.945Z,6.30
2023-04-22T02:55:45.217Z,7.40
2023-04-22T02:56:45.513Z,7.40
2023-04-22T02:57:45.818Z,6.60
2023-04-22T02:58:46.148Z,7.00
2023-04-22T02:59:46.437Z,7.00
2023-04-22T03:00:46.738Z,7.00
2023-04-22T03:01:47.060Z,7.10
2023-04-22T03:02:47.434Z,7.00
2023-04-22T03:03:47.837Z,7.00
2023-04-22T03:04:47.857Z,6.70
2023-04-22T03:05:48.150Z,6.30
2023-04-22T03:06:48.465Z,5.80
2023-04-22T03:07:48.749Z,5.70
2023-04-22T03:08:49.069Z,5.90
2023-04-22T03:09:49.360Z,6.10
2023-04-22T03:10:49.667Z,5.10
2023-04-22T03:11:49.972Z,5.90
2023-04-22T03:12:50.258Z,5.90
2023-04-22T03:13:50.575Z,5.30
2023-04-22T03:14:50.874Z,5.10
2023-04-22T03:15:51.146Z,5.50
2023-04-22T03:16:51.554Z,5.30
2023-04-22T03:17:51.818Z,6.10
2023-04-22T03:18:52.040Z,5.60
2023-04-22T03:19:52.308Z,6.10
2023-04-22T03:20:52.637Z,5.70
2023-04-22T03:21:52.927Z,5.40
2023-04-22T03:22:53.268Z,5.40
2023-04-22T03:23:53.561Z,5.40
2023-04-22T03:24:53.854Z,5.40
2023-04-22T03:25:54.186Z,5.10
2023-04-22T03:26:54.493Z,5.30
2023-04-22T03:27:54.780Z,5.10
2023-04-22T03:28:55.156Z,5.90
2023-04-22T03:29:55.448Z,6.00
2023-04-22T03:30:55.789Z,5.80
2023-04-22T03:31:56.167Z,5.70
2023-04-22T03:32:56.425Z,6.10
2023-04-22T03:33:56.564Z,5.90
2023-04-22T03:34:56.881Z,5.60
2023-04-22T03:35:57.185Z,6.50
2023-04-22T03:36:57.509Z,5.40
2023-04-22T03:37:57.834Z,5.30
2023-04-22T03:38:58.126Z,5.90
2023-04-22T03:39:58.424Z,5.60
2023-04-22T03:40:58.748Z,6.00
2023-04-22T03:41:59.078Z,6.00
2023-04-22T03:42:59.378Z,5.80
2023-04-22T03:44:01.690Z,5.90
2023-04-22T03:44:59.996Z,6.30
2023-04-22T03:46:00.394Z,6.00
2023-04-22T03:47:00.553Z,5.90
2023-04-22T03:48:00.809Z,5.90
2023-04-22T03:49:01.147Z,5.80
2023-04-22T03:50:01.441Z,5.50
2023-04-22T03:51:01.762Z,5.70
2023-04-22T03:52:02.090Z,5.50
2023-04-22T03:53:02.424Z,5.60
2023-04-22T03:54:02.647Z,5.40
2023-04-22T03:55:02.967Z,5.60
2023-04-22T03:56:03.218Z,5.70
2023-04-22T03:57:03.524Z,5.90
2023-04-22T03:58:03.781Z,5.20
2023-04-22T03:59:04.115Z,5.70
2023-04-22T04:00:04.458Z,5.90
2023-04-22T04:01:04.764Z,5.40
2023-04-22T04:02:05.150Z,5.70
2023-04-22T04:03:05.498Z,4.80
2023-04-22T04:04:05.883Z,4.80
2023-04-22T04:05:05.998Z,5.00
2023-04-22T04:06:06.313Z,5.10
2023-04-22T04:07:06.558Z,4.80
2023-04-22T04:08:06.986Z,4.70
2023-04-22T04:09:07.156Z,5.00
2023-04-22T04:10:07.495Z,4.10
2023-04-22T04:11:07.877Z,4.30
2023-04-22T04:12:08.150Z,4.70
2023-04-22T04:13:08.491Z,4.50
2023-04-22T04:14:08.685Z,4.50
2023-04-22T04:15:09.016Z,4.40
2023-04-22T04:16:09.368Z,4.40
2023-04-22T04:17:09.756Z,4.80
2023-04-22T04:18:09.962Z,4.10
2023-04-22T04:19:10.191Z,4.90
2023-04-22T04:20:10.527Z,4.60
2023-04-22T04:21:10.876Z,5.00
2023-04-22T04:22:11.182Z,5.00
2023-04-22T04:23:11.458Z,4.70
2023-04-22T04:24:11.671Z,4.40
2023-04-22T04:25:12.020Z,4.50
2023-04-22T04:26:12.341Z,4.90
2023-04-22T04:27:12.692Z,5.10
2023-04-22T04:28:13.060Z,5.60
2023-04-22T04:29:13.287Z,6.00
2023-04-22T04:30:13.504Z,5.90
2023-04-22T04:31:13.881Z,6.40
2023-04-22T04:32:14.074Z,6.50
2023-04-22T04:33:14.494Z,6.40
2023-04-22T04:34:14.672Z,6.60
2023-04-22T04:35:15.047Z,6.60
2023-04-22T04:36:16.029Z,6.90
2023-04-22T04:37:15.579Z,6.20
2023-04-22T04:38:15.798Z,7.00
2023-04-22T04:39:16.294Z,6.60
2023-04-22T04:40:16.474Z,6.30
2023-04-22T04:41:16.814Z,6.00
2023-04-22T04:42:17.162Z,6.30
2023-04-22T04:43:17.432Z,6.30
2023-04-22T04:44:17.656Z,6.10
2023-04-22T04:45:17.901Z,6.10
2023-04-22T04:46:18.132Z,6.60
2023-04-22T04:47:18.587Z,6.20
2023-04-22T04:48:18.834Z,6.90
2023-04-22T04:49:19.032Z,6.30
2023-04-22T04:50:19.378Z,6.40
2023-04-22T04:51:20.504Z,6.00
2023-04-22T04:52:19.924Z,6.20
2023-04-22T04:53:20.256Z,6.40
2023-04-22T04:54:20.368Z,6.10
2023-04-22T04:55:20.687Z,6.60
2023-04-22T04:56:21.043Z,7.30
2023-04-22T04:57:21.538Z,8.00
2023-04-22T04:58:21.662Z,7.00
2023-04-22T04:59:21.892Z,6.10
2023-04-22T05:00:22.120Z,7.70
2023-04-22T05:01:22.427Z,7.90
2023-04-22T05:02:23.118Z,7.20
2023-04-22T05:03:23.113Z,7.30
2023-04-22T05:04:23.553Z,6.40
2023-04-22T05:05:23.600Z,5.80
2023-04-22T05:06:23.962Z,5.90
2023-04-22T05:07:24.206Z,5.30
2023-04-22T05:08:24.441Z,5.50
2023-04-22T05:09:24.642Z,5.80
2023-04-22T05:10:25.027Z,5.70
2023-04-22T05:11:25.254Z,6.10
2023-04-22T05:12:25.475Z,5.50
2023-04-22T05:13:25.706Z,6.40
2023-04-22T05:14:25.917Z,5.50
2023-04-22T05:15:26.269Z,5.50
2023-04-22T05:16:26.644Z,5.50
2023-04-22T05:17:26.919Z,5.20
2023-04-22T05:18:27.109Z,5.30
2023-04-22T05:19:27.330Z,6.00
2023-04-22T05:20:27.561Z,5.80
2023-04-22T05:21:27.814Z,6.00
2023-04-22T05:22:28.092Z,5.90
2023-04-22T05:23:28.308Z,5.60
2023-04-22T05:24:28.558Z,5.40
2023-04-22T05:25:28.787Z,5.70
2023-04-22T05:26:29.035Z,5.00
2023-04-22T05:27:29.281Z,5.40
2023-04-22T05:28:29.548Z,5.00
2023-04-22T05:29:29.781Z,5.00
2023-04-22T05:30:30.035Z,4.70
2023-04-22T05:31:30.264Z,5.20
2023-04-22T05:32:30.541Z,5.20
2023-04-22T05:33:30.756Z,4.50
2023-04-22T05:34:30.989Z,4.90
2023-04-22T05:35:31.230Z,4.70
2023-04-22T05:36:31.757Z,5.00
2023-04-22T05:37:31.793Z,5.10
2023-04-22T05:38:32.063Z,4.80
2023-04-22T05:39:32.379Z,5.20
2023-04-22T05:40:32.567Z,5.30
2023-04-22T05:41:32.831Z,5.00
2023-04-22T05:42:33.055Z,4.70
2023-04-22T05:43:33.347Z,5.10
2023-04-22T05:44:33.606Z,4.20
2023-04-22T05:45:33.913Z,5.00
2023-04-22T05:46:34.311Z,4.40
2023-04-22T05:47:34.528Z,4.90
2023-04-22T05:48:34.760Z,4.50
2023-04-22T05:49:35.026Z,4.30
2023-04-22T05:50:35.288Z,4.60
2023-04-22T05:51:35.520Z,4.90
2023-04-22T05:52:35.817Z,4.30
2023-04-22T05:53:36.082Z,4.30
2023-04-22T05:54:36.348Z,4.60
2023-04-22T05:55:36.576Z,4.70
2023-04-22T05:56:36.853Z,4.70
2023-04-22T05:57:37.132Z,4.50
2023-04-22T05:58:37.361Z,4.50
2023-04-22T05:59:37.702Z,4.30
2023-04-22T06:00:37.919Z,4.40
2023-04-22T06:01:38.171Z,3.90
2023-04-22T06:02:38.547Z,4.20
2023-04-22T06:03:39.035Z,4.10
2023-04-22T06:04:39.392Z,4.30
2023-04-22T06:05:40.037Z,5.00
2023-04-22T06:06:39.447Z,4.90
2023-04-22T06:07:39.717Z,4.50
2023-04-22T06:08:39.974Z,4.50
2023-04-22T06:09:40.543Z,4.50
2023-04-22T06:10:40.569Z,4.50
2023-04-22T06:11:40.862Z,4.40
2023-04-22T06:12:41.054Z,4.40
2023-04-22T06:13:41.337Z,4.70
2023-04-22T06:14:41.588Z,5.00
2023-04-22T06:15:41.854Z,5.40
2023-04-22T06:16:42.108Z,6.00
2023-04-22T06:17:42.444Z,6.40
2023-04-22T06:18:42.680Z,6.00
2023-04-22T06:19:42.928Z,6.00
2023-04-22T06:20:43.184Z,5.90
2023-04-22T06:21:43.468Z,5.60
2023-04-22T06:22:43.700Z,5.60
2023-04-22T06:23:43.946Z,5.50
2023-04-22T06:24:45.673Z,5.60
2023-04-22T06:25:44.435Z,5.50
2023-04-22T06:26:44.681Z,6.10
2023-04-22T06:27:44.932Z,5.30
2023-04-22T06:28:45.207Z,4.80
2023-04-22T06:29:45.429Z,5.10
2023-04-22T06:30:45.665Z,4.60
2023-04-22T06:31:46.050Z,3.80
2023-04-22T06:32:46.126Z,4.50
2023-04-22T06:33:46.458Z,3.90
2023-04-22T06:34:46.817Z,4.20
2023-04-22T06:35:47.046Z,4.10
2023-04-22T06:36:47.310Z,4.30
2023-04-22T06:37:47.558Z,4.70
2023-04-22T06:38:47.783Z,4.40
2023-04-22T06:39:48.009Z,4.10
2023-04-22T06:40:48.242Z,4.30
2023-04-22T06:41:48.491Z,4.00
2023-04-22T06:42:48.735Z,4.30
2023-04-22T06:43:48.950Z,4.10
2023-04-22T06:44:49.329Z,3.60
2023-04-22T06:45:49.584Z,4.30
2023-04-22T06:46:49.856Z,3.90
2023-04-22T06:47:50.111Z,4.20
2023-04-22T06:48:50.362Z,4.10
2023-04-22T06:49:50.695Z,4.40
2023-04-22T06:50:51.062Z,3.90
2023-04-22T06:51:51.409Z,4.30
2023-04-22T06:52:51.674Z,4.20
2023-04-22T06:53:51.906Z,3.80
2023-04-22T06:54:52.111Z,4.40
2023-04-22T06:55:52.330Z,4.10
2023-04-22T06:56:52.599Z,3.90
2023-04-22T06:57:52.823Z,4.20
2023-04-22T06:58:53.177Z,3.90
2023-04-22T06:59:53.423Z,4.00
2023-04-22T07:00:53.649Z,4.40
2023-04-22T07:01:53.942Z,4.00
2023-04-22T07:02:54.222Z,4.00
2023-04-22T07:03:54.508Z,3.90
2023-04-22T07:04:54.734Z,4.40
2023-04-22T07:05:54.962Z,4.10
2023-04-22T07:06:55.306Z,4.30
2023-04-22T07:07:55.532Z,4.00
2023-04-22T07:08:55.893Z,4.60
2023-04-22T07:09:56.137Z,4.20
2023-04-22T07:10:56.352Z,4.60
2023-04-22T07:11:56.598Z,4.00
2023-04-22T07:12:56.827Z,3.80
2023-04-22T07:13:57.062Z,4.50
2023-04-22T07:14:57.314Z,4.20
2023-04-22T07:15:57.517Z,4.60
2023-04-22T07:16:57.750Z,4.60
2023-04-22T07:17:58.037Z,4.20
2023-04-22T07:18:58.352Z,4.40
2023-04-22T07:19:58.545Z,4.00
2023-04-22T07:20:58.761Z,4.00
2023-04-22T07:21:59.115Z,3.80
2023-04-22T07:22:59.342Z,4.20
2023-04-22T07:23:59.560Z,4.10
2023-04-22T07:24:59.907Z,4.20
2023-04-22T07:26:00.126Z,3.80
2023-04-22T07:27:00.394Z,3.60
2023-04-22T07:28:00.620Z,3.60
2023-04-22T07:29:00.979Z,4.20
2023-04-22T07:30:01.208Z,3.70
2023-04-22T07:31:01.595Z,4.20
2023-04-22T07:32:01.892Z,3.90
2023-04-22T07:33:02.100Z,3.40
2023-04-22T07:34:02.306Z,3.70
2023-04-22T07:35:02.527Z,3.90
2023-04-22T07:36:02.889Z,4.00
2023-04-22T07:37:03.163Z,4.10
2023-04-22T07:38:03.426Z,4.10
2023-04-22T07:39:03.637Z,3.70
2023-04-22T07:40:03.999Z,4.00
2023-04-22T07:41:04.255Z,3.90
2023-04-22T07:42:04.476Z,3.70
2023-04-22T07:43:04.743Z,4.10
2023-04-22T07:44:04.954Z,3.60
2023-04-22T07:45:05.209Z,3.90
2023-04-22T07:46:05.469Z,3.50
2023-04-22T07:47:05.706Z,4.00
2023-04-22T07:48:06.011Z,3.50
2023-04-22T07:49:06.226Z,3.60
2023-04-22T07:50:06.459Z,3.70
2023-04-22T07:51:06.680Z,3.70
2023-04-22T07:52:06.954Z,3.70
2023-04-22T07:53:07.147Z,3.20
2023-04-22T07:54:07.494Z,3.90
2023-04-22T07:55:07.722Z,3.50
2023-04-22T07:56:07.952Z,3.40
2023-04-22T07:57:08.217Z,3.40
2023-04-22T07:58:08.463Z,3.20
2023-04-22T07:59:08.685Z,3.70
2023-04-22T08:00:08.914Z,3.80
2023-04-22T08:01:09.185Z,3.50
2023-04-22T08:02:09.523Z,3.90
2023-04-22T08:03:10.029Z,3.40
2023-04-22T08:04:10.316Z,3.30
2023-04-22T08:05:10.427Z,3.50
2023-04-22T08:06:10.612Z,4.20
2023-04-22T08:08:11.208Z,3.40
2023-04-22T08:09:11.417Z,3.40
2023-04-22T08:10:11.798Z,3.50
2023-04-22T08:11:12.072Z,3.80
2023-04-22T08:12:12.320Z,3.60
2023-04-22T08:13:13.373Z,3.50
2023-04-22T08:14:12.774Z,3.40
2023-04-22T08:15:13.037Z,3.60
2023-04-22T08:16:13.286Z,3.20
2023-04-22T08:17:13.521Z,3.30
2023-04-22T08:18:13.761Z,3.40
2023-04-22T08:19:14.027Z,3.50
2023-04-22T08:20:14.273Z,3.30
2023-04-22T08:21:14.508Z,3.50
2023-04-22T08:22:14.718Z,3.20
2023-04-22T08:23:14.962Z,3.00
2023-04-22T08:24:15.204Z,3.50
2023-04-22T08:25:15.428Z,2.90
2023-04-22T08:26:15.790Z,3.50
2023-04-22T08:27:16.025Z,3.20
2023-04-22T08:28:16.270Z,3.30
2023-04-22T08:29:16.494Z,3.20
2023-04-22T08:30:16.725Z,3.20
2023-04-22T08:31:17.000Z,3.20
2023-04-22T08:32:17.237Z,3.60
2023-04-22T08:33:17.510Z,3.30
2023-04-22T08:34:17.723Z,3.30
2023-04-22T08:35:17.962Z,3.40
2023-04-22T08:36:18.218Z,3.20
2023-04-22T08:37:18.464Z,3.70
2023-04-22T08:38:18.698Z,3.10
2023-04-22T08:39:18.945Z,3.30
2023-04-22T08:40:19.172Z,3.00
2023-04-22T08:41:19.543Z,3.20
2023-04-22T08:42:19.772Z,3.10
2023-04-22T08:43:20.004Z,3.40
2023-04-22T08:44:20.254Z,3.50
2023-04-22T08:45:20.496Z,3.10
2023-04-22T08:46:20.798Z,3.60
2023-04-22T08:47:21.134Z,3.50
2023-04-22T08:48:21.272Z,3.10
2023-04-22T08:49:21.515Z,2.90
2023-04-22T08:50:21.822Z,3.10
2023-04-22T08:51:22.092Z,3.30
2023-04-22T08:52:22.324Z,3.00
2023-04-22T08:53:24.628Z,3.00
2023-04-22T08:54:22.901Z,3.30
2023-04-22T08:55:23.154Z,3.00
2023-04-22T08:56:23.392Z,3.20
2023-04-22T08:57:23.628Z,3.10
2023-04-22T08:58:23.884Z,3.20
2023-04-22T08:59:24.092Z,3.50
2023-04-22T09:00:24.325Z,3.20
2023-04-22T09:01:24.583Z,3.20
2023-04-22T09:02:24.873Z,3.20
2023-04-22T09:03:25.128Z,3.50
2023-04-22T09:04:25.477Z,3.10
2023-04-22T09:05:27.675Z,2.90
2023-04-22T09:06:26.032Z,3.00
2023-04-22T09:07:26.258Z,3.10
2023-04-22T09:08:26.476Z,3.40
2023-04-22T09:09:26.718Z,2.90
2023-04-22T09:10:26.942Z,3.20
2023-04-22T09:11:27.214Z,3.00
2023-04-22T09:12:27.440Z,3.00
2023-04-22T09:13:27.794Z,3.00
2023-04-22T09:14:27.980Z,3.20
2023-04-22T09:15:28.243Z,3.50
2023-04-22T09:16:28.523Z,3.60
2023-04-22T09:17:28.717Z,3.40
2023-04-22T09:18:28.954Z,3.20
2023-04-22T09:19:29.198Z,2.80
2023-04-22T09:20:29.421Z,3.00
2023-04-22T09:21:29.649Z,3.10
2023-04-22T09:22:29.908Z,3.10
2023-04-22T09:23:30.156Z,2.90
2023-04-22T09:24:30.382Z,3.10
2023-04-22T09:25:30.620Z,3.10
2023-04-22T09:26:30.885Z,2.70
2023-04-22T09:27:31.158Z,2.90
2023-04-22T09:28:31.436Z,2.80
2023-04-22T09:29:31.706Z,3.10
2023-04-22T09:30:31.938Z,2.80
2023-04-22T09:31:32.203Z,2.70
2023-04-22T09:32:32.436Z,3.00
2023-04-22T09:33:32.633Z,2.80
2023-04-22T09:34:32.894Z,2.60
2023-04-22T09:35:33.122Z,2.80
2023-04-22T09:36:33.356Z,2.70
2023-04-22T09:37:46.668Z,2.80
2023-04-22T09:38:34.922Z,2.70
2023-04-22T09:39:34.207Z,2.70
2023-04-22T09:40:34.448Z,2.40
2023-04-22T09:41:34.708Z,2.80
2023-04-22T09:42:34.958Z,2.70
2023-04-22T09:43:35.212Z,3.00
2023-04-22T09:44:35.450Z,2.80
2023-04-22T09:45:35.725Z,3.00
2023-04-22T09:46:35.932Z,2.70
2023-04-22T09:47:36.176Z,2.90
2023-04-22T09:48:36.395Z,2.90
2023-04-22T09:49:36.761Z,2.80
2023-04-22T09:50:36.903Z,2.30
2023-04-22T09:51:37.131Z,2.80
2023-04-22T09:52:37.380Z,2.90
2023-04-22T09:53:37.599Z,2.60
2023-04-22T09:54:37.829Z,2.50
2023-04-22T09:55:38.081Z,2.80
2023-04-22T09:56:38.329Z,2.60
2023-04-22T09:57:38.572Z,2.80
2023-04-22T09:58:38.807Z,2.40
2023-04-22T09:59:39.266Z,2.90
2023-04-22T10:00:39.426Z,2.80
2023-04-22T10:01:39.781Z,2.70
2023-04-22T10:02:39.939Z,2.30
2023-04-22T10:03:40.225Z,2.40
2023-04-22T10:04:40.439Z,3.00
2023-04-22T10:05:40.699Z,3.10
2023-04-22T10:06:40.958Z,3.00
2023-04-22T10:07:41.238Z,2.50
2023-04-22T10:08:41.438Z,2.30
2023-04-22T10:09:41.932Z,2.50
2023-04-22T10:10:42.002Z,2.60
2023-04-22T10:11:42.221Z,2.70
2023-04-22T10:12:42.456Z,2.50
2023-04-22T10:13:43.158Z,2.90
2023-04-22T10:14:42.950Z,3.00
2023-04-22T10:15:43.181Z,2.90
2023-04-22T10:16:43.433Z,2.00
2023-04-22T10:17:43.696Z,2.60
2023-04-22T10:18:43.951Z,2.20
2023-04-22T10:19:44.162Z,2.90
2023-04-22T10:20:44.425Z,2.60
2023-04-22T10:21:44.709Z,2.50
2023-04-22T10:22:44.935Z,2.40
2023-04-22T10:23:45.166Z,2.40
2023-04-22T10:24:45.422Z,2.50
2023-04-22T10:25:45.681Z,3.20
2023-04-22T10:26:45.895Z,3.00
2023-04-22T10:27:46.253Z,2.80
2023-04-22T10:28:46.508Z,2.90
2023-04-22T10:29:46.769Z,3.00
2023-04-22T10:30:47.070Z,2.60
2023-04-22T10:31:47.310Z,2.60
2023-04-22T10:32:47.600Z,2.80
2023-04-22T10:33:48.063Z,2.40
2023-04-22T10:34:48.137Z,2.30
2023-04-22T10:35:48.361Z,2.50
2023-04-22T10:36:48.701Z,2.60
2023-04-22T10:37:49.052Z,2.70
2023-04-22T10:38:49.337Z,3.00
2023-04-22T10:39:49.582Z,2.70
2023-04-22T10:40:49.834Z,3.00
2023-04-22T10:41:50.048Z,2.70
2023-04-22T10:42:50.398Z,3.10
2023-04-22T10:43:50.660Z,2.60
2023-04-22T10:44:52.378Z,3.10
2023-04-22T10:45:51.232Z,2.70
2023-04-22T10:46:51.468Z,2.90
2023-04-22T10:47:51.719Z,2.90
2023-04-22T10:48:51.937Z,3.10
2023-04-22T10:49:52.199Z,2.80
2023-04-22T10:50:53.684Z,3.10
2023-04-22T10:51:52.723Z,2.60
2023-04-22T10:52:52.973Z,2.80
2023-04-22T10:53:53.205Z,2.60
2023-04-22T10:54:53.464Z,3.00
2023-04-22T10:55:53.928Z,2.80
2023-04-22T10:56:58.019Z,2.50
2023-04-22T10:57:54.268Z,2.50
2023-04-22T10:58:55.320Z,2.80
2023-04-22T10:59:54.757Z,3.00
2023-04-22T11:00:55.021Z,2.70
2023-04-22T11:01:55.349Z,2.50
2023-04-22T11:02:55.783Z,2.70
2023-04-22T11:03:55.904Z,2.70
2023-04-22T11:04:56.134Z,3.00
2023-04-22T11:05:56.353Z,2.70
2023-04-22T11:06:56.691Z,2.90
2023-04-22T11:07:56.929Z,2.80
2023-04-22T11:08:57.145Z,2.70
2023-04-22T11:09:57.395Z,2.50
2023-04-22T11:10:57.631Z,2.70
2023-04-22T11:11:58.737Z,3.10
2023-04-22T11:12:58.271Z,2.70
2023-04-22T11:13:58.505Z,2.60
2023-04-22T11:14:58.760Z,2.90
2023-04-22T11:15:59.821Z,2.90
2023-04-22T11:17:00.779Z,2.30
2023-04-22T11:17:59.586Z,3.00
2023-04-22T11:18:59.809Z,2.80
2023-04-22T11:20:00.049Z,3.00
2023-04-22T11:21:00.389Z,2.80
2023-04-22T11:22:00.730Z,3.40
2023-04-22T11:23:01.721Z,2.80
2023-04-22T11:24:01.288Z,2.80
2023-04-22T11:25:01.566Z,2.60
2023-04-22T11:26:01.760Z,2.60
2023-04-22T11:27:02.114Z,2.40
2023-04-22T11:28:02.332Z,2.60
2023-04-22T11:29:02.629Z,2.50
2023-04-22T11:30:02.861Z,3.00
2023-04-22T11:31:03.143Z,2.90
2023-04-22T11:32:03.398Z,3.20
2023-04-22T11:33:03.751Z,2.70
2023-04-22T11:34:03.965Z,2.90
2023-04-22T11:35:04.250Z,2.50
2023-04-22T11:36:04.484Z,3.00
2023-04-22T11:37:04.848Z,2.70
2023-04-22T11:38:05.079Z,2.60
2023-04-22T11:39:05.307Z,2.80
2023-04-22T11:40:17.297Z,2.50
2023-04-22T11:41:06.876Z,3.00
2023-04-22T11:42:06.162Z,2.70
2023-04-22T11:43:06.402Z,2.70
2023-04-22T11:44:06.621Z,2.70
2023-04-22T11:45:06.871Z,2.70
2023-04-22T11:46:07.166Z,2.50
2023-04-22T11:47:07.346Z,2.80
2023-04-22T11:48:07.714Z,2.90
2023-04-22T11:49:07.945Z,3.20
2023-04-22T11:50:08.186Z,3.20
2023-04-22T11:51:08.424Z,3.50
2023-04-22T11:52:08.658Z,2.70
2023-04-22T11:53:08.985Z,2.90
2023-04-22T11:54:09.243Z,3.40
2023-04-22T11:55:09.513Z,2.90
2023-04-22T11:56:09.792Z,2.80
2023-04-22T11:57:09.984Z,2.60
2023-04-22T11:58:10.322Z,2.90
2023-04-22T11:59:10.711Z,3.20
2023-04-22T12:00:10.908Z,3.00
2023-04-22T12:01:11.186Z,3.50
2023-04-22T12:02:11.526Z,3.20
2023-04-22T12:03:14.197Z,2.70
2023-04-22T12:04:12.426Z,2.90
2023-04-22T12:05:12.460Z,2.90
2023-04-22T12:06:12.681Z,2.80
2023-04-22T12:07:12.905Z,2.90
2023-04-22T12:08:13.140Z,2.80
2023-04-22T12:09:14.044Z,3.10
2023-04-22T12:10:13.677Z,3.30
2023-04-22T12:11:13.857Z,3.30
2023-04-22T12:12:14.087Z,3.00
2023-04-22T12:13:14.313Z,2.80
2023-04-22T12:14:14.572Z,3.40
2023-04-22T12:15:16.204Z,3.40
2023-04-22T12:16:15.017Z,3.10
2023-04-22T12:17:15.305Z,2.80
2023-04-22T12:18:15.525Z,3.10
2023-04-22T12:19:15.767Z,2.90
2023-04-22T12:20:15.995Z,3.10
2023-04-22T12:21:16.215Z,3.20
2023-04-22T12:22:16.564Z,3.20
2023-04-22T12:23:16.808Z,3.10
2023-04-22T12:24:17.036Z,3.60
2023-04-22T12:25:17.290Z,2.80
2023-04-22T12:26:17.534Z,2.50
2023-04-22T12:27:17.764Z,2.60
2023-04-22T12:28:17.986Z,2.80
2023-04-22T12:29:18.337Z,2.90
2023-04-22T12:30:18.591Z,2.90
2023-04-22T12:31:18.838Z,2.80
2023-04-22T12:32:19.044Z,2.80
2023-04-22T12:33:19.411Z,2.80
2023-04-22T12:34:19.629Z,3.10
2023-04-22T12:35:19.984Z,2.90
2023-04-22T12:36:20.212Z,3.00
2023-04-22T12:37:20.554Z,3.30
2023-04-22T12:38:20.795Z,3.20
2023-04-22T12:39:21.018Z,3.30
2023-04-22T12:40:21.289Z,3.00
2023-04-22T12:41:21.547Z,3.00
2023-04-22T12:42:21.766Z,3.00
2023-04-22T12:43:21.998Z,3.00
2023-04-22T12:44:24.952Z,3.10
2023-04-22T12:45:22.585Z,3.10
2023-04-22T12:46:22.890Z,2.60
2023-04-22T12:47:23.174Z,2.80
2023-04-22T12:48:24.147Z,3.40
2023-04-22T12:49:23.706Z,2.80
2023-04-22T12:50:23.958Z,2.90
2023-04-22T12:51:24.173Z,2.50
2023-04-22T12:52:24.412Z,3.10
2023-04-22T12:53:24.660Z,2.80
2023-04-22T12:54:24.898Z,3.00
2023-04-22T12:55:25.140Z,2.80
2023-04-22T12:56:25.357Z,3.10
2023-04-22T12:57:25.725Z,2.80
2023-04-22T12:58:25.958Z,2.60
2023-04-22T12:59:26.187Z,2.90
2023-04-22T13:00:26.454Z,2.60
2023-04-22T13:01:26.691Z,2.70
2023-04-22T13:02:27.166Z,2.90
2023-04-22T13:03:27.539Z,2.90
2023-04-22T13:04:27.734Z,3.50
2023-04-22T13:05:27.808Z,2.50
2023-04-22T13:06:28.040Z,3.20
2023-04-22T13:07:28.417Z,2.80
2023-04-22T13:08:28.645Z,2.90
2023-04-22T13:09:28.901Z,3.00
2023-04-22T13:10:29.140Z,3.10
2023-04-22T13:11:29.417Z,2.90
2023-04-22T13:12:29.635Z,3.20
2023-04-22T13:13:29.877Z,2.70
2023-04-22T13:14:30.111Z,2.90
2023-04-22T13:15:30.365Z,2.60
2023-04-22T13:16:30.629Z,2.50
2023-04-22T13:17:30.857Z,2.70
2023-04-22T13:18:31.069Z,3.00
2023-04-22T13:19:31.291Z,2.70
2023-04-22T13:20:31.685Z,2.80
2023-04-22T13:21:31.914Z,3.10
2023-04-22T13:22:32.136Z,2.60
2023-04-22T13:23:32.377Z,2.50